»·PEaware :: N6262K KDAG-KVNY

N6262K :: KDAG-KVNY

FLIGHT INFORMATION

Flight Status: Arrived
Operator: Privately registered:
United States
More flights under this callsign
Pilot: Judson K. (15650)
Aircraft: MITSUBISHI MU-2 MARQUISE
(MU2)
More flights by this aircraft type
Origin: KDAG Barstow-Daggett
United States
Destination: KVNY Van Nuys
United States
More flights between these airports :: More routes between these airports
Route: +DAG1 TEELE DAG LYNXX8
File this flight plan on PilotEdge
Remarks:
Altitude:
(Current/Filed)
21,000ft
Speed:
(Current/Filed)
240kts
Departed: 28-Dec-17 08:41 PM
Arrived: 28-Dec-17 09:21 PM
Distance/Time
Traveled:
93nm/0:40
Distance/Time
To Go:
Arrived

Flight Plot

Page will automatically refresh every two minutes.

Flight plan parsing failed; only flown route is shown


Map Options




Map Legend


Flown Route
Filed Route
Departure Airport
Arrival Airport
Navaid (VOR, NDB)
Fix

Horizontal Profiles

Position Reports

Time Latitude Longitude Heading Altitude Ground
Speed
28-Dec-17 20:32 34.856433 -116.791209 183 1920ft 0kts
28-Dec-17 20:33 34.856433 -116.791209 183 1920ft 0kts
28-Dec-17 20:34 34.856433 -116.791209 183 1920ft 0kts
28-Dec-17 20:35 34.856433 -116.791209 183 1920ft 0kts
28-Dec-17 20:36 34.856433 -116.791209 183 1920ft 0kts
28-Dec-17 20:37 34.856433 -116.791209 183 1920ft 0kts
28-Dec-17 20:38 34.856433 -116.791209 183 1920ft 0kts
28-Dec-17 20:39 34.856433 -116.791209 182 1920ft 0kts
28-Dec-17 20:40 34.856433 -116.791209 182 1920ft 0kts
28-Dec-17 20:41 34.856433 -116.791209 183 1920ft 0kts
28-Dec-17 20:42 34.856433 -116.791209 183 1920ft 0kts
28-Dec-17 20:43 34.856294 -116.790247 75 1920ft 14kts
28-Dec-17 20:44 34.858173 -116.786968 51 1914ft 13kts
28-Dec-17 20:45 34.860413 -116.782324 47 1910ft 24kts
28-Dec-17 20:46 34.861399 -116.780081 139 1910ft 0kts
28-Dec-17 20:47 34.860077 -116.780689 233 1910ft 56kts
28-Dec-17 20:48 34.855295 -116.813883 336 3470ft 131kts
28-Dec-17 20:49 34.870729 -116.777930 100 5784ft 164kts
28-Dec-17 20:50 34.890158 -116.723263 57 7016ft 218kts
28-Dec-17 20:51 34.921551 -116.660504 58 8275ft 197kts
28-Dec-17 20:52 34.950516 -116.600891 56 10643ft 196kts
28-Dec-17 20:53 34.977083 -116.543675 60 13121ft 195kts
28-Dec-17 20:54 35.002971 -116.484811 63 15357ft 203kts
28-Dec-17 20:55 35.030464 -116.421806 64 17328ft 221kts
28-Dec-17 20:56 35.058808 -116.351947 84 19223ft 238kts
28-Dec-17 20:57 35.013388 -116.335314 241 20277ft 250kts
28-Dec-17 20:58 34.997010 -116.425867 259 20261ft 299kts
28-Dec-17 20:59 34.975181 -116.528205 257 20258ft 320kts
28-Dec-17 21:00 34.951416 -116.634275 257 20235ft 328kts
28-Dec-17 21:01 34.926785 -116.739461 256 20228ft 329kts
28-Dec-17 21:02 34.901764 -116.847101 256 20228ft 330kts
28-Dec-17 21:03 34.876804 -116.954318 256 20228ft 330kts
28-Dec-17 21:04 34.851338 -117.061168 256 19482ft 327kts
28-Dec-17 21:05 34.826352 -117.165703 256 17926ft 318kts
28-Dec-17 21:06 34.802690 -117.265634 255 16230ft 300kts
28-Dec-17 21:07 34.780241 -117.361912 254 14698ft 291kts
28-Dec-17 21:08 34.758142 -117.455465 255 13974ft 279kts
28-Dec-17 21:09 34.737170 -117.544593 256 14116ft 281kts
28-Dec-17 21:10 34.715154 -117.637879 255 14092ft 292kts
28-Dec-17 21:11 34.696411 -117.715096 255 14085ft 294kts
28-Dec-17 21:12 34.670183 -117.826430 258 13929ft 297kts
28-Dec-17 21:13 34.653324 -117.924205 260 14077ft 298kts
28-Dec-17 21:14 34.640895 -118.007252 261 14080ft 301kts
28-Dec-17 21:15 34.619897 -118.122461 256 13455ft 298kts
28-Dec-17 21:16 34.598852 -118.218842 256 12096ft 293kts
28-Dec-17 21:17 34.581981 -118.297750 255 11066ft 285kts
28-Dec-17 21:18 34.561811 -118.389951 255 9324ft 279kts
28-Dec-17 21:19 34.542533 -118.478714 255 8098ft 253kts
28-Dec-17 21:20 34.495762 -118.512169 155 7094ft 242kts
28-Dec-17 21:21 34.436141 -118.475576 153 6055ft 239kts
28-Dec-17 21:22 34.372019 -118.483680 192 5048ft 227kts
28-Dec-17 21:23 34.320536 -118.496155 192 4555ft 141kts
28-Dec-17 21:24 34.283224 -118.498190 177 2604ft 124kts
28-Dec-17 21:25 34.251323 -118.494553 176 1548ft 116kts
28-Dec-17 21:26 34.219386 -118.491253 177 876ft 115kts
28-Dec-17 21:27 34.204262 -118.490468 200 764ft 0kts
28-Dec-17 21:28 34.202573 -118.490725 172 760ft 8kts
28-Dec-17 21:29 34.203331 -118.491500 0 762ft 3kts
28-Dec-17 21:30 34.203365 -118.491500 0 762ft 0kts
28-Dec-17 21:31 34.203365 -118.491500 0 762ft 0kts
28-Dec-17 21:32 34.203365 -118.491500 0 762ft 0kts

Navigation Log

Ident Type
Flight plan parsing failed, navigation log unavailable